createdAt,value
2019-03-23T00:02:10.492Z,93.60
2019-03-23T00:04:38.915Z,94.00
2019-03-23T00:07:07.386Z,93.80
2019-03-23T00:09:35.813Z,93.60
2019-03-23T00:12:04.328Z,94.40
2019-03-23T00:14:32.780Z,94.60
2019-03-23T00:17:01.219Z,94.60
2019-03-23T00:19:30.004Z,94.60
2019-03-23T00:21:58.447Z,94.10
2019-03-23T00:24:46.231Z,94.30
2019-03-23T00:27:14.660Z,94.70
2019-03-23T00:29:43.115Z,93.90
2019-03-23T00:32:13.092Z,94.30
2019-03-23T00:34:41.619Z,94.50
2019-03-23T00:37:10.042Z,94.20
2019-03-23T00:39:38.491Z,94.50
2019-03-23T00:42:26.265Z,94.90
2019-03-23T00:44:54.789Z,94.90
2019-03-23T00:47:23.226Z,94.90
2019-03-23T00:49:51.675Z,94.90
2019-03-23T00:52:20.096Z,94.70
2019-03-23T00:54:48.566Z,94.60
2019-03-23T00:57:17.092Z,94.60
2019-03-23T00:59:45.540Z,94.30
2019-03-23T01:02:13.997Z,94.00
2019-03-23T01:04:42.431Z,94.50
2019-03-23T01:07:10.944Z,94.80
2019-03-23T01:09:39.379Z,94.80
2019-03-23T01:12:07.811Z,94.70
2019-03-23T01:14:36.255Z,93.80
2019-03-23T01:17:04.783Z,93.90
2019-03-23T01:19:33.277Z,93.80
2019-03-23T01:22:21.066Z,93.70
2019-03-23T01:24:49.481Z,95.00
2019-03-23T01:27:17.907Z,95.10
2019-03-23T01:29:46.375Z,95.20
2019-03-23T01:32:14.839Z,95.50
2019-03-23T01:34:43.362Z,95.50
2019-03-23T01:37:11.800Z,95.00
2019-03-23T01:39:40.283Z,95.50
2019-03-23T01:42:08.706Z,95.00
2019-03-23T01:44:37.157Z,94.60
2019-03-23T01:47:05.615Z,94.70
2019-03-23T01:49:34.062Z,94.90
2019-03-23T01:52:02.549Z,95.30
2019-03-23T01:54:31.016Z,95.00
2019-03-23T01:56:59.465Z,95.10
2019-03-23T01:59:27.935Z,94.70
2019-03-23T02:01:56.391Z,94.80
2019-03-23T02:04:24.826Z,94.90
2019-03-23T02:06:53.259Z,95.00
2019-03-23T02:09:21.703Z,94.90
2019-03-23T02:11:50.124Z,95.30
2019-03-23T02:14:18.559Z,95.40
2019-03-23T02:16:47.006Z,95.60
2019-03-23T02:19:15.443Z,95.90
2019-03-23T02:21:43.943Z,95.90
2019-03-23T02:24:12.378Z,95.80
2019-03-23T02:26:40.804Z,95.90
2019-03-23T02:29:09.290Z,96.00
2019-03-23T02:31:37.752Z,96.30
2019-03-23T02:34:06.239Z,96.00
2019-03-23T02:36:34.737Z,95.80
2019-03-23T02:39:04.384Z,96.20
2019-03-23T02:41:32.897Z,95.40
2019-03-23T02:44:01.324Z,94.80
2019-03-23T02:46:29.829Z,95.50
2019-03-23T02:49:19.236Z,96.20
2019-03-23T02:51:47.663Z,96.50
2019-03-23T02:54:16.113Z,95.40
2019-03-23T02:56:44.637Z,95.00
2019-03-23T02:59:13.089Z,94.70
2019-03-23T03:01:41.623Z,94.70
2019-03-23T03:04:10.056Z,95.00
2019-03-23T03:06:38.483Z,95.10
2019-03-23T03:09:07.047Z,95.10
2019-03-23T03:11:35.512Z,94.90
2019-03-23T03:14:03.954Z,95.20
2019-03-23T03:16:32.405Z,95.70
2019-03-23T03:19:00.833Z,95.60
2019-03-23T03:21:29.336Z,95.10
2019-03-23T03:23:57.778Z,95.10
2019-03-23T03:26:26.219Z,95.70
2019-03-23T03:28:54.728Z,96.10
2019-03-23T03:31:26.180Z,96.30
2019-03-23T03:33:54.618Z,95.70
2019-03-23T03:36:23.178Z,96.00
2019-03-23T03:38:51.668Z,96.10
2019-03-23T03:41:20.159Z,96.40
2019-03-23T03:43:48.604Z,96.40
2019-03-23T03:46:17.117Z,96.50
2019-03-23T03:48:45.649Z,96.00
2019-03-23T03:51:14.105Z,96.10
2019-03-23T03:53:42.606Z,96.30
2019-03-23T03:56:11.033Z,96.70
2019-03-23T03:58:39.471Z,96.70
2019-03-23T04:01:07.909Z,96.80
2019-03-23T04:03:36.357Z,96.50
2019-03-23T04:06:04.868Z,95.50
2019-03-23T04:08:33.296Z,95.80
2019-03-23T04:11:01.799Z,95.80
2019-03-23T04:13:30.214Z,96.20
2019-03-23T04:15:58.680Z,95.60
2019-03-23T04:18:27.108Z,95.70
2019-03-23T04:20:55.547Z,96.80
2019-03-23T04:23:23.987Z,97.50
2019-03-23T04:25:52.445Z,97.90
2019-03-23T04:28:20.883Z,97.30
2019-03-23T04:30:49.347Z,97.30
2019-03-23T04:33:17.840Z,97.50
2019-03-23T04:36:05.616Z,97.30
2019-03-23T04:38:34.054Z,96.80
2019-03-23T04:41:02.505Z,97.00
2019-03-23T04:43:30.940Z,96.70
2019-03-23T04:45:59.387Z,96.20
2019-03-23T04:48:27.810Z,96.20
2019-03-23T04:50:56.251Z,96.30
2019-03-23T04:53:24.684Z,96.40
2019-03-23T04:55:55.372Z,96.70
2019-03-23T04:58:23.801Z,96.60
2019-03-23T05:00:52.245Z,96.90
2019-03-23T05:03:20.683Z,97.30
2019-03-23T05:05:49.124Z,97.10
2019-03-23T05:08:17.558Z,97.30
2019-03-23T05:10:45.997Z,97.20
2019-03-23T05:13:14.419Z,96.90
2019-03-23T05:15:42.869Z,97.00
2019-03-23T05:18:11.318Z,96.30
2019-03-23T05:20:39.744Z,96.20
2019-03-23T05:23:08.264Z,96.60
2019-03-23T05:25:36.680Z,96.80
2019-03-23T05:28:05.125Z,96.80
2019-03-23T05:30:33.553Z,97.30
2019-03-23T05:33:02.019Z,97.50
2019-03-23T05:35:30.492Z,97.20
2019-03-23T05:37:58.946Z,98.70
2019-03-23T05:40:27.368Z,98.40
2019-03-23T05:42:55.803Z,97.40
2019-03-23T05:45:24.255Z,96.80
2019-03-23T05:47:52.748Z,96.40
2019-03-23T05:50:21.194Z,96.20
2019-03-23T05:52:49.707Z,96.40
2019-03-23T05:55:18.381Z,96.30
2019-03-23T05:57:46.830Z,95.90
2019-03-23T06:00:17.002Z,95.50
2019-03-23T06:02:45.458Z,95.90
2019-03-23T06:05:13.868Z,95.90
2019-03-23T06:07:42.313Z,95.80
2019-03-23T06:10:10.981Z,95.60
2019-03-23T06:12:39.522Z,95.70
2019-03-23T06:15:08.276Z,95.80
2019-03-23T06:17:36.807Z,96.00
2019-03-23T06:20:07.009Z,96.20
2019-03-23T06:22:35.444Z,96.00
2019-03-23T06:25:05.818Z,96.20
2019-03-23T06:27:34.262Z,96.10
2019-03-23T06:30:02.695Z,96.00
2019-03-23T06:32:31.125Z,96.10
2019-03-23T06:34:59.554Z,96.10
2019-03-23T06:37:28.018Z,96.10
2019-03-23T06:39:56.497Z,96.00
2019-03-23T06:42:24.947Z,95.90
2019-03-23T06:44:53.396Z,95.80
2019-03-23T06:47:21.839Z,95.90
2019-03-23T06:49:50.362Z,95.90
2019-03-23T06:52:18.970Z,95.80
2019-03-23T06:54:47.431Z,95.80
2019-03-23T06:57:15.948Z,95.70
2019-03-23T06:59:44.387Z,95.80
2019-03-23T07:02:13.080Z,95.70
2019-03-23T07:04:41.510Z,95.60
2019-03-23T07:07:09.966Z,95.50
2019-03-23T07:09:38.397Z,95.70
2019-03-23T07:12:06.828Z,95.10
2019-03-23T07:14:35.284Z,95.20
2019-03-23T07:17:03.738Z,95.30
2019-03-23T07:19:32.185Z,95.20
2019-03-23T07:22:00.626Z,94.80
2019-03-23T07:24:29.074Z,94.90
2019-03-23T07:26:57.504Z,94.70
2019-03-23T07:29:25.978Z,95.00
2019-03-23T07:32:05.269Z,94.90
2019-03-23T07:34:24.565Z,94.90
2019-03-23T07:36:53.010Z,94.50
2019-03-23T07:39:27.192Z,93.90
2019-03-23T07:41:51.858Z,93.60
2019-03-23T07:44:20.325Z,93.50
2019-03-23T07:46:49.095Z,93.30
2019-03-23T07:49:17.527Z,93.30
2019-03-23T07:51:45.978Z,93.00
2019-03-23T07:54:14.491Z,93.10
2019-03-23T07:56:42.926Z,92.90
2019-03-23T07:59:11.372Z,92.80
2019-03-23T08:01:39.810Z,92.60
2019-03-23T08:04:08.279Z,92.30
2019-03-23T08:06:36.702Z,91.80
2019-03-23T08:09:06.519Z,91.60
2019-03-23T08:11:34.963Z,91.40
2019-03-23T08:14:03.391Z,91.30
2019-03-23T08:16:31.850Z,90.40
2019-03-23T08:19:00.299Z,90.10
2019-03-23T08:21:28.723Z,89.70
2019-03-23T08:23:57.187Z,89.00
2019-03-23T08:26:25.610Z,88.40
2019-03-23T08:28:54.052Z,87.60
2019-03-23T08:31:22.496Z,86.70
2019-03-23T08:33:52.115Z,84.20
2019-03-23T08:36:20.669Z,84.20
2019-03-23T08:38:49.115Z,83.60
2019-03-23T08:41:17.546Z,83.30
2019-03-23T08:43:46.005Z,81.80
2019-03-23T08:46:15.746Z,81.40
2019-03-23T08:48:44.179Z,82.10
2019-03-23T08:51:14.521Z,80.60
2019-03-23T08:53:42.959Z,78.70
2019-03-23T08:56:11.450Z,76.60
2019-03-23T08:58:38.850Z,76.80
2019-03-23T09:01:07.289Z,75.90
2019-03-23T09:03:35.756Z,74.60
2019-03-23T09:06:04.200Z,74.10
2019-03-23T09:08:32.662Z,72.40
2019-03-23T09:11:01.091Z,68.70
2019-03-23T09:13:40.048Z,69.60
2019-03-23T09:15:59.701Z,68.60
2019-03-23T09:18:28.146Z,68.20
2019-03-23T09:20:56.585Z,68.10
2019-03-23T09:23:25.017Z,66.80
2019-03-23T09:25:53.541Z,66.40
2019-03-23T09:28:22.021Z,64.60
2019-03-23T09:30:50.472Z,63.30
2019-03-23T09:33:18.900Z,61.10
2019-03-23T09:35:47.345Z,60.00
2019-03-23T09:38:15.815Z,59.40
2019-03-23T09:40:44.251Z,58.90
2019-03-23T09:43:12.696Z,59.10
2019-03-23T09:45:41.146Z,57.00
2019-03-23T09:48:09.598Z,56.00
2019-03-23T09:50:38.111Z,56.00
2019-03-23T09:53:06.550Z,55.20
2019-03-23T09:55:35.065Z,55.60
2019-03-23T09:58:03.512Z,55.10
2019-03-23T10:00:31.967Z,54.00
2019-03-23T10:03:00.425Z,53.40
2019-03-23T10:05:28.873Z,52.10
2019-03-23T10:07:57.331Z,52.30
2019-03-23T10:10:25.793Z,51.70
2019-03-23T10:12:54.213Z,51.40
2019-03-23T10:15:22.664Z,51.40
2019-03-23T10:17:51.101Z,51.20
2019-03-23T10:20:19.555Z,49.90
2019-03-23T10:22:48.008Z,48.30
2019-03-23T10:25:16.451Z,46.00
2019-03-23T10:27:44.893Z,46.50
2019-03-23T10:30:13.574Z,46.80
2019-03-23T10:32:42.008Z,48.10
2019-03-23T10:35:10.591Z,48.00
2019-03-23T10:37:39.116Z,45.80
2019-03-23T10:40:09.205Z,45.80
2019-03-23T10:42:38.007Z,46.30
2019-03-23T10:45:08.704Z,44.40
2019-03-23T10:47:37.319Z,45.00
2019-03-23T10:50:06.551Z,43.50
2019-03-23T10:52:35.427Z,43.10
2019-03-23T10:55:05.413Z,42.80
2019-03-23T10:57:33.856Z,41.60
2019-03-23T11:00:02.280Z,41.90
2019-03-23T11:02:30.718Z,41.60
2019-03-23T11:04:59.201Z,41.90
2019-03-23T11:07:27.645Z,40.60
2019-03-23T11:09:56.096Z,40.30
2019-03-23T11:12:25.273Z,40.70
2019-03-23T11:14:54.066Z,41.00
2019-03-23T11:17:22.584Z,40.30
2019-03-23T11:19:54.240Z,41.00
2019-03-23T11:22:21.810Z,41.00
2019-03-23T11:24:50.392Z,40.70
2019-03-23T11:27:18.906Z,40.20
2019-03-23T11:29:47.453Z,41.10
2019-03-23T11:32:15.940Z,40.50
2019-03-23T11:34:44.423Z,39.70
2019-03-23T11:37:12.915Z,40.70
2019-03-23T11:39:41.404Z,40.00
2019-03-23T11:42:09.862Z,40.00
2019-03-23T11:44:38.381Z,40.00
2019-03-23T11:47:06.848Z,40.20
2019-03-23T11:49:35.291Z,39.00
2019-03-23T11:52:03.821Z,39.00
2019-03-23T11:54:32.380Z,39.20
2019-03-23T11:57:00.857Z,38.50
2019-03-23T11:59:29.308Z,38.30
2019-03-23T12:01:57.738Z,37.80
2019-03-23T12:04:26.180Z,38.70
2019-03-23T12:06:54.680Z,38.00
2019-03-23T12:09:23.171Z,37.60
2019-03-23T12:11:51.613Z,35.30
2019-03-23T12:14:20.057Z,35.20
2019-03-23T12:16:48.515Z,36.00
2019-03-23T12:19:16.992Z,35.60
2019-03-23T12:21:45.463Z,35.80
2019-03-23T12:24:13.936Z,35.70
2019-03-23T12:26:42.400Z,35.50
2019-03-23T12:29:10.902Z,34.70
2019-03-23T12:31:39.385Z,33.70
2019-03-23T12:34:07.868Z,33.10
2019-03-23T12:36:36.371Z,31.90
2019-03-23T12:39:06.672Z,32.80
2019-03-23T12:41:35.195Z,32.40
2019-03-23T12:44:03.716Z,32.30
2019-03-23T12:46:32.197Z,31.30
2019-03-23T12:49:00.655Z,29.10
2019-03-23T12:51:29.102Z,28.10
2019-03-23T12:53:57.576Z,27.70
2019-03-23T12:56:26.072Z,25.80
2019-03-23T12:58:54.572Z,25.10
2019-03-23T13:01:23.086Z,26.40
2019-03-23T13:03:51.537Z,25.50
2019-03-23T13:06:20.010Z,25.90
2019-03-23T13:08:48.510Z,24.70
2019-03-23T13:11:23.293Z,23.80
2019-03-23T13:13:47.185Z,22.90
2019-03-23T13:16:15.707Z,23.90
2019-03-23T13:18:44.516Z,24.10
2019-03-23T13:21:13.027Z,24.40
2019-03-23T13:23:41.517Z,24.20
2019-03-23T13:26:10.344Z,23.60
2019-03-23T13:28:38.882Z,23.80
2019-03-23T13:31:07.321Z,24.90
2019-03-23T13:33:35.772Z,25.30
2019-03-23T13:36:04.483Z,25.40
2019-03-23T13:38:32.960Z,25.60
2019-03-23T13:41:01.777Z,25.60
2019-03-23T13:43:30.249Z,24.80
2019-03-23T13:45:58.707Z,24.50
2019-03-23T13:48:27.155Z,24.20
2019-03-23T13:51:01.390Z,24.90
2019-03-23T13:53:29.918Z,25.00
2019-03-23T13:55:58.388Z,24.30
2019-03-23T13:58:26.873Z,23.60
2019-03-23T14:00:55.324Z,22.50
2019-03-23T14:03:23.782Z,22.70
2019-03-23T14:05:52.261Z,23.00
2019-03-23T14:08:20.704Z,22.70
2019-03-23T14:10:49.184Z,22.50
2019-03-23T14:13:17.632Z,22.90
2019-03-23T14:15:46.306Z,23.10
2019-03-23T14:18:14.781Z,23.10
2019-03-23T14:20:43.263Z,23.60
2019-03-23T14:23:11.713Z,22.60
2019-03-23T14:25:40.168Z,22.50
2019-03-23T14:28:08.630Z,22.60
2019-03-23T14:30:37.080Z,21.30
2019-03-23T14:33:05.541Z,21.20
2019-03-23T14:35:33.997Z,20.60
2019-03-23T14:38:02.465Z,19.30
2019-03-23T14:40:30.933Z,19.30
2019-03-23T14:43:01.651Z,19.80
2019-03-23T14:45:30.153Z,20.50
2019-03-23T14:47:58.725Z,21.60
2019-03-23T14:50:27.275Z,22.00
2019-03-23T14:52:55.948Z,22.30
2019-03-23T14:55:24.514Z,23.00
2019-03-23T14:57:53.008Z,22.30
2019-03-23T15:00:29.354Z,22.40
2019-03-23T15:02:57.803Z,22.10
2019-03-23T15:05:26.365Z,21.90
2019-03-23T15:07:54.888Z,22.30
2019-03-23T15:10:23.385Z,22.30
2019-03-23T15:12:51.902Z,23.00
2019-03-23T15:15:20.362Z,23.20
2019-03-23T15:17:49.248Z,23.20
2019-03-23T15:20:17.778Z,23.20
2019-03-23T15:22:46.259Z,22.80
2019-03-23T15:25:14.741Z,23.30
2019-03-23T15:27:43.190Z,24.00
2019-03-23T15:30:11.808Z,24.50
2019-03-23T15:32:40.305Z,25.40
2019-03-23T15:35:09.016Z,26.30
2019-03-23T15:37:37.673Z,26.70
2019-03-23T15:40:07.476Z,26.10
2019-03-23T15:42:36.073Z,25.70
2019-03-23T15:45:07.450Z,25.90
2019-03-23T15:47:36.049Z,27.00
2019-03-23T15:50:06.662Z,26.10
2019-03-23T15:52:35.123Z,26.80
2019-03-23T15:55:04.480Z,27.40
2019-03-23T15:57:32.925Z,28.10
2019-03-23T16:00:01.399Z,28.80
2019-03-23T16:02:31.385Z,29.10
2019-03-23T16:04:59.837Z,28.50
2019-03-23T16:07:29.743Z,28.20
2019-03-23T16:09:58.440Z,28.00
2019-03-23T16:12:34.488Z,28.50
2019-03-23T16:14:57.107Z,29.10
2019-03-23T16:17:25.550Z,29.70
2019-03-23T16:19:54.000Z,30.10
2019-03-23T16:22:22.478Z,30.80
2019-03-23T16:24:50.903Z,31.20
2019-03-23T16:27:19.379Z,31.50
2019-03-23T16:29:47.818Z,32.20
2019-03-23T16:32:16.277Z,31.90
2019-03-23T16:34:44.700Z,32.20
2019-03-23T16:37:13.151Z,32.90
2019-03-23T16:39:41.572Z,33.80
2019-03-23T16:42:10.035Z,34.60
2019-03-23T16:44:38.488Z,36.20
2019-03-23T16:47:06.939Z,38.10
2019-03-23T16:49:35.387Z,39.50
2019-03-23T16:52:03.903Z,41.30
2019-03-23T16:54:32.346Z,42.80
2019-03-23T16:57:00.814Z,44.80
2019-03-23T16:59:29.279Z,47.90
2019-03-23T17:01:57.800Z,50.50
2019-03-23T17:04:26.314Z,52.20
2019-03-23T17:06:55.017Z,54.50
2019-03-23T17:09:23.462Z,57.10
2019-03-23T17:11:52.791Z,60.20
2019-03-23T17:14:21.435Z,62.90
2019-03-23T17:16:49.876Z,66.20
2019-03-23T17:19:18.365Z,68.70
2019-03-23T17:21:46.953Z,71.50
2019-03-23T17:24:15.384Z,71.00
2019-03-23T17:26:43.825Z,71.90
2019-03-23T17:29:12.276Z,72.40
2019-03-23T17:31:40.726Z,72.90
2019-03-23T17:34:09.181Z,73.80
2019-03-23T17:36:37.614Z,73.40
2019-03-23T17:39:06.633Z,73.50
2019-03-23T17:41:35.065Z,73.50
2019-03-23T17:44:03.509Z,73.60
2019-03-23T17:46:31.979Z,73.60
2019-03-23T17:49:00.431Z,73.20
2019-03-23T17:51:28.968Z,73.10
2019-03-23T17:53:58.858Z,72.90
2019-03-23T17:56:27.627Z,74.00
2019-03-23T17:58:56.091Z,74.30
2019-03-23T18:01:24.576Z,74.20
2019-03-23T18:03:53.018Z,73.10
2019-03-23T18:06:21.448Z,72.30
2019-03-23T18:08:49.894Z,73.40
2019-03-23T18:11:18.356Z,71.80
2019-03-23T18:13:46.803Z,71.90
2019-03-23T18:16:15.255Z,71.20
2019-03-23T18:18:43.728Z,71.30
2019-03-23T18:21:12.216Z,71.30
2019-03-23T18:23:40.666Z,71.00
2019-03-23T18:26:09.302Z,70.30
2019-03-23T18:28:37.804Z,70.60
2019-03-23T18:31:06.243Z,70.80
2019-03-23T18:33:34.717Z,70.20
2019-03-23T18:36:03.216Z,70.20
2019-03-23T18:38:31.751Z,70.10
2019-03-23T18:41:00.255Z,70.20
2019-03-23T18:43:28.685Z,70.20
2019-03-23T18:45:57.142Z,70.40
2019-03-23T18:48:25.591Z,70.10
2019-03-23T18:50:54.117Z,71.00
2019-03-23T18:53:24.011Z,71.70
2019-03-23T18:55:52.856Z,72.10
2019-03-23T18:58:21.290Z,72.50
2019-03-23T19:00:49.733Z,73.20
2019-03-23T19:03:18.161Z,73.90
2019-03-23T19:05:46.629Z,74.10
2019-03-23T19:08:15.066Z,74.40
2019-03-23T19:10:43.504Z,74.90
2019-03-23T19:13:11.958Z,74.70
2019-03-23T19:15:40.410Z,74.80
2019-03-23T19:18:08.856Z,75.00
2019-03-23T19:20:37.303Z,75.70
2019-03-23T19:23:05.809Z,77.20
2019-03-23T19:25:34.273Z,76.40
2019-03-23T19:28:02.706Z,76.80
2019-03-23T19:30:31.144Z,77.00
2019-03-23T19:32:59.585Z,76.90
2019-03-23T19:35:28.026Z,77.10
2019-03-23T19:37:56.459Z,77.80
2019-03-23T19:40:25.165Z,78.20
2019-03-23T19:42:53.602Z,78.80
2019-03-23T19:45:22.061Z,78.80
2019-03-23T19:47:50.472Z,78.90
2019-03-23T19:50:18.925Z,79.10
2019-03-23T19:52:47.366Z,79.70
2019-03-23T19:55:15.816Z,80.10
2019-03-23T19:57:44.272Z,80.00
2019-03-23T20:00:13.253Z,80.30
2019-03-23T20:02:41.754Z,80.60
2019-03-23T20:05:10.362Z,81.00
2019-03-23T20:07:38.783Z,81.20
2019-03-23T20:10:09.336Z,81.50
2019-03-23T20:12:38.029Z,82.20
2019-03-23T20:15:08.475Z,82.50
2019-03-23T20:17:36.979Z,82.10
2019-03-23T20:20:07.877Z,82.50
2019-03-23T20:22:36.318Z,82.70
2019-03-23T20:25:06.660Z,83.00
2019-03-23T20:27:35.118Z,83.20
2019-03-23T20:30:05.563Z,83.50
2019-03-23T20:32:33.996Z,83.80
2019-03-23T20:35:02.461Z,84.00
2019-03-23T20:37:30.895Z,84.20
2019-03-23T20:39:59.332Z,84.30
2019-03-23T20:42:27.778Z,84.80
2019-03-23T20:44:56.213Z,84.80
2019-03-23T20:47:24.657Z,85.60
2019-03-23T20:49:53.452Z,86.10
2019-03-23T20:52:21.888Z,86.30
2019-03-23T20:54:50.338Z,86.70
2019-03-23T20:57:23.993Z,87.20
2019-03-23T20:59:48.949Z,88.00
2019-03-23T21:02:17.425Z,88.90
2019-03-23T21:04:45.856Z,88.80
2019-03-23T21:07:14.297Z,89.10
2019-03-23T21:09:42.762Z,89.40
2019-03-23T21:12:11.251Z,90.00
2019-03-23T21:14:39.681Z,90.20
2019-03-23T21:17:08.140Z,90.50
2019-03-23T21:19:36.570Z,90.30
2019-03-23T21:22:05.025Z,90.40
2019-03-23T21:24:33.463Z,90.20
2019-03-23T21:27:01.958Z,90.00
2019-03-23T21:29:30.447Z,90.00
2019-03-23T21:31:58.904Z,90.20
2019-03-23T21:34:27.338Z,90.20
2019-03-23T21:36:55.790Z,90.00
2019-03-23T21:39:24.230Z,90.10
2019-03-23T21:41:52.759Z,90.20
2019-03-23T21:44:30.712Z,89.70
2019-03-23T21:46:51.371Z,89.30
2019-03-23T21:49:19.811Z,89.20
2019-03-23T21:51:48.509Z,88.80
2019-03-23T21:54:16.996Z,88.30
2019-03-23T21:56:45.538Z,88.20
2019-03-23T21:59:13.972Z,88.10
2019-03-23T22:01:42.507Z,87.70
2019-03-23T22:04:11.207Z,87.90
2019-03-23T22:06:39.892Z,87.70
2019-03-23T22:09:08.881Z,87.40
2019-03-23T22:11:37.440Z,87.50
2019-03-23T22:14:05.953Z,87.40
2019-03-23T22:16:34.425Z,87.50
2019-03-23T22:19:02.889Z,88.50
2019-03-23T22:21:31.515Z,87.80
2019-03-23T22:23:59.984Z,87.80
2019-03-23T22:26:28.427Z,87.70
2019-03-23T22:28:56.869Z,87.80
2019-03-23T22:31:25.378Z,87.70
2019-03-23T22:33:53.823Z,88.00
2019-03-23T22:36:22.340Z,87.80
2019-03-23T22:38:51.271Z,88.00
2019-03-23T22:41:19.808Z,88.20
2019-03-23T22:43:48.352Z,87.90
2019-03-23T22:46:16.792Z,88.20
2019-03-23T22:48:46.097Z,88.80
2019-03-23T22:51:14.533Z,89.60
2019-03-23T22:53:42.988Z,89.70
2019-03-23T22:56:11.482Z,89.90
2019-03-23T22:58:45.167Z,90.00
2019-03-23T23:01:13.632Z,90.20
2019-03-23T23:03:42.226Z,90.50
2019-03-23T23:06:10.656Z,90.40
2019-03-23T23:08:39.192Z,90.60
2019-03-23T23:11:07.633Z,90.70
2019-03-23T23:13:36.152Z,90.40
2019-03-23T23:16:04.657Z,90.30
2019-03-23T23:18:33.116Z,90.00
2019-03-23T23:21:01.647Z,90.30
2019-03-23T23:23:30.080Z,90.30
2019-03-23T23:25:58.528Z,90.60
2019-03-23T23:28:26.971Z,90.50
2019-03-23T23:30:55.483Z,90.50
2019-03-23T23:33:23.934Z,90.90
2019-03-23T23:35:52.392Z,91.00
2019-03-23T23:38:20.877Z,90.90
2019-03-23T23:40:49.308Z,90.70
2019-03-23T23:43:17.821Z,90.60
2019-03-23T23:45:46.260Z,90.70
2019-03-23T23:48:14.703Z,90.80
2019-03-23T23:50:43.165Z,91.10
2019-03-23T23:53:11.633Z,91.00
2019-03-23T23:55:40.056Z,91.40
2019-03-23T23:58:08.511Z,91.80
